Time;durP1;ratioP1;P1;durP2;ratioP2;P2;SDS_P1;SDS_P2;PMS_P1;PMS_P2;Temp;Humidity;BMP_temperature;BMP_pressure;BME280_temperature;BME280_humidity;BME280_pressure;Samples;Min_cycle;Max_cycle;Signal;HPM_P1;HPM_P2
2022/06/18 00:00:58;;;;;;;1.70;0.70;;;20.90;78.30;;;;;;4992241;28;20136;-87
2022/06/18 00:03:25;;;;;;;1.90;0.80;;;20.80;78.60;;;;;;4970789;28;20014;-89
2022/06/18 00:05:56;;;;;;;1.20;0.60;;;20.80;78.70;;;;;;4975614;28;20023;-88
2022/06/18 00:08:24;;;;;;;1.63;0.70;;;20.80;79.10;;;;;;4968715;28;20030;-87
2022/06/18 00:13:39;;;;;;;1.67;0.65;;;20.80;79.20;;;;;;4976661;28;20049;-88
2022/06/18 00:13:41;;;;;;;;;;;20.70;79.10;;;;;;4989770;28;20026;-87
2022/06/18 00:16:17;;;;;;;1.30;0.70;;;20.70;79.30;;;;;;4971663;28;20141;-87
2022/06/18 00:18:43;;;;;;;1.35;0.60;;;20.70;79.60;;;;;;4968733;28;20037;-88
2022/06/18 00:21:15;;;;;;;1.80;0.70;;;20.60;79.50;;;;;;4977903;28;20022;-87
2022/06/18 00:23:41;;;;;;;2.28;0.85;;;20.60;79.90;;;;;;4991205;28;20022;-87
2022/06/18 00:26:08;;;;;;;1.80;0.55;;;20.60;80.10;;;;;;4993104;28;20101;-87
2022/06/18 00:28:34;;;;;;;2.78;0.80;;;20.60;80.50;;;;;;4993280;28;20094;-88
2022/06/18 00:31:00;;;;;;;2.13;0.70;;;20.50;80.40;;;;;;4978596;28;20761;-88
2022/06/18 00:33:26;;;;;;;1.50;0.68;;;20.50;80.90;;;;;;4976366;28;20058;-88
2022/06/18 00:35:56;;;;;;;1.30;0.60;;;20.50;81.20;;;;;;4977883;28;20027;-87
2022/06/18 00:38:34;;;;;;;1.50;0.73;;;20.40;81.50;;;;;;4978805;28;20037;-87
2022/06/18 00:41:01;;;;;;;2.75;0.75;;;20.40;81.50;;;;;;4993534;28;20030;-87
2022/06/18 00:44:08;;;;;;;1.30;0.60;;;20.30;81.40;;;;;;4971572;28;20018;-88
2022/06/18 00:46:40;;;;;;;1.58;0.70;;;20.30;81.70;;;;;;4936932;28;20049;-87
2022/06/18 00:49:23;;;;;;;2.20;0.68;;;20.30;81.90;;;;;;4969522;28;21178;-87
2022/06/18 00:52:15;;;;;;;1.33;0.68;;;20.20;81.50;;;;;;4970576;28;20033;-88
2022/06/18 00:54:51;;;;;;;1.40;0.70;;;20.20;82.10;;;;;;4989495;28;20046;-86
2022/06/18 00:57:28;;;;;;;2.65;0.75;;;20.10;81.80;;;;;;4973607;28;20061;-88
2022/06/18 01:00:20;;;;;;;2.00;0.90;;;20.10;82.10;;;;;;4972017;28;20568;-87
2022/06/18 01:02:46;;;;;;;;;;;20.10;82.00;;;;;;4998899;23;20050;-87
2022/06/18 01:05:35;;;;;;;1.48;0.70;;;20.10;82.50;;;;;;5007568;28;19917;-86
2022/06/18 01:08:04;;;;;;;1.52;0.70;;;20.00;81.80;;;;;;4997278;28;20082;-87
2022/06/18 01:10:37;;;;;;;1.90;0.70;;;20.00;82.30;;;;;;5008858;28;20104;-87
2022/06/18 01:13:06;;;;;;;3.53;0.70;;;20.00;82.70;;;;;;5008645;28;20575;-86
2022/06/18 01:15:32;;;;;;;2.95;0.90;;;20.00;83.10;;;;;;5009574;28;20026;-87
2022/06/18 01:18:00;;;;;;;1.35;0.70;;;20.00;82.90;;;;;;4993464;28;20052;-87
2022/06/18 01:20:26;;;;;;;1.52;0.60;;;20.00;83.00;;;;;;4987725;28;20026;-87
2022/06/18 01:23:01;;;;;;;2.20;0.82;;;20.00;83.20;;;;;;4988746;28;20046;-87
2022/06/18 01:25:27;;;;;;;2.22;0.80;;;20.00;82.90;;;;;;4992457;28;20018;-86
2022/06/18 01:27:54;;;;;;;0.95;0.52;;;20.00;83.20;;;;;;4988904;28;20029;-87
2022/06/18 01:30:22;;;;;;;2.17;0.90;;;19.90;82.80;;;;;;5019670;28;20052;-86
2022/06/18 01:32:51;;;;;;;2.00;0.55;;;19.90;83.30;;;;;;5002984;28;20022;-86
2022/06/18 01:35:20;;;;;;;2.33;0.70;;;19.90;83.20;;;;;;5012807;28;20057;-86
2022/06/18 01:37:46;;;;;;;2.15;0.90;;;19.80;83.50;;;;;;5002478;28;20120;-86
2022/06/18 01:40:17;;;;;;;1.65;0.77;;;19.80;84.10;;;;;;5018357;28;20029;-87
2022/06/18 01:42:46;;;;;;;1.75;0.70;;;19.70;84.10;;;;;;5005616;28;20018;-86
2022/06/18 01:45:17;;;;;;;2.40;0.90;;;19.70;84.50;;;;;;5018407;28;20022;-86
2022/06/18 01:47:49;;;;;;;1.63;0.70;;;19.60;84.90;;;;;;4999518;28;20038;-86
2022/06/18 01:50:29;;;;;;;;;;;19.60;85.20;;;;;;5018173;28;20030;-86
2022/06/18 01:53:25;;;;;;;2.60;0.95;;;19.60;85.30;;;;;;5011202;28;19913;-90
2022/06/18 01:56:05;;;;;;;2.85;1.00;;;19.50;85.60;;;;;;5010063;28;20090;-89
2022/06/18 01:58:39;;;;;;;1.52;0.68;;;19.40;86.10;;;;;;5013959;28;20038;-88
2022/06/18 02:01:14;;;;;;;2.72;0.82;;;19.30;86.60;;;;;;5002855;28;20406;-90
2022/06/18 02:03:40;;;;;;;1.63;0.75;;;19.30;86.90;;;;;;5003813;28;20029;-89
2022/06/18 02:06:08;;;;;;;1.58;0.70;;;19.30;87.20;;;;;;5005136;28;20513;-89
2022/06/18 02:08:34;;;;;;;2.13;0.80;;;19.30;87.50;;;;;;5002055;28;20033;-88
2022/06/18 02:11:03;;;;;;;1.80;0.98;;;19.20;87.60;;;;;;5022113;28;20417;-89
2022/06/18 02:14:03;;;;;;;1.77;0.93;;;19.10;88.00;;;;;;5015054;28;20037;-90
2022/06/18 02:16:33;;;;;;;1.65;0.77;;;19.00;88.70;;;;;;4996099;28;20046;-90
2022/06/18 02:19:03;;;;;;;2.25;0.90;;;18.90;89.50;;;;;;5005265;28;20030;-89
2022/06/18 02:21:35;;;;;;;2.33;0.88;;;18.90;89.40;;;;;;5006081;28;20030;-88
2022/06/18 02:24:00;;;;;;;1.83;0.82;;;18.90;90.10;;;;;;5010878;28;20029;-89
2022/06/18 02:26:28;;;;;;;1.63;0.80;;;19.00;90.10;;;;;;5014485;28;20030;-88
2022/06/18 02:28:55;;;;;;;2.38;1.00;;;19.00;90.10;;;;;;5008314;28;20034;-88
2022/06/18 02:31:26;;;;;;;1.65;0.70;;;19.00;90.10;;;;;;5020031;28;20029;-89
2022/06/18 02:34:04;;;;;;;1.63;0.70;;;19.00;90.10;;;;;;5019149;28;20018;-88
2022/06/18 02:36:34;;;;;;;2.03;0.80;;;19.00;90.00;;;;;;5022261;28;20033;-89
2022/06/18 02:39:10;;;;;;;2.50;0.82;;;18.90;89.80;;;;;;4998710;28;20030;-90
2022/06/18 02:41:40;;;;;;;3.17;0.95;;;18.90;89.60;;;;;;5017151;28;20038;-89
2022/06/18 02:44:06;;;;;;;1.85;0.80;;;18.90;90.10;;;;;;4994935;28;20025;-90
2022/06/18 02:46:32;;;;;;;2.22;0.80;;;18.90;90.10;;;;;;4996810;28;20041;-90
2022/06/18 02:49:02;;;;;;;3.40;0.77;;;18.90;90.10;;;;;;4999073;28;20026;-90
2022/06/18 02:51:32;;;;;;;2.08;0.88;;;18.90;90.00;;;;;;5005901;28;20028;-90
2022/06/18 02:53:58;;;;;;;2.70;0.57;;;18.90;90.00;;;;;;5014034;28;20037;-89
2022/06/18 02:56:27;;;;;;;2.85;1.00;;;18.80;89.80;;;;;;5014097;28;20051;-89
2022/06/18 02:59:04;;;;;;;1.27;0.60;;;18.80;90.10;;;;;;4991331;28;20029;-89
2022/06/18 03:01:33;;;;;;;1.73;0.80;;;18.70;90.20;;;;;;5008689;28;20052;-89
2022/06/18 03:04:05;;;;;;;2.22;0.80;;;18.80;90.10;;;;;;5003937;28;20026;-89
2022/06/18 03:06:46;;;;;;;2.03;0.70;;;18.70;90.20;;;;;;5007965;28;20030;-89
2022/06/18 03:09:18;;;;;;;1.83;0.68;;;18.70;90.20;;;;;;4991638;28;20041;-90
2022/06/18 03:14:31;;;;;;;1.77;0.65;;;18.70;90.20;;;;;;5008794;28;20342;-89
2022/06/18 03:16:59;;;;;;;1.73;0.70;;;18.70;90.40;;;;;;5002173;28;20095;-89
2022/06/18 03:19:38;;;;;;;1.58;0.80;;;18.70;90.50;;;;;;4991171;28;20024;-89
2022/06/18 03:22:27;;;;;;;1.70;0.70;;;18.70;90.40;;;;;;5006662;28;20084;-90
2022/06/18 03:24:53;;;;;;;1.60;0.70;;;18.70;90.40;;;;;;4987034;28;20025;-89
2022/06/18 03:27:21;;;;;;;2.40;1.00;;;18.70;90.60;;;;;;4992240;28;20080;-90
2022/06/18 03:29:56;;;;;;;1.10;0.60;;;18.70;90.60;;;;;;5009135;28;20026;-88
2022/06/18 03:32:34;;;;;;;1.58;0.60;;;18.80;90.80;;;;;;4991390;28;20029;-90
2022/06/18 03:35:00;;;;;;;1.85;0.80;;;18.80;90.70;;;;;;4990263;28;20030;-89
2022/06/18 03:37:26;;;;;;;1.55;0.60;;;18.80;90.90;;;;;;5008812;28;20049;-89
2022/06/18 03:39:52;;;;;;;4.03;1.00;;;18.80;91.10;;;;;;4994046;28;20029;-90
2022/06/18 03:42:20;;;;;;;4.03;0.70;;;18.80;90.90;;;;;;4987060;28;20611;-89
2022/06/18 03:44:46;;;;;;;1.60;0.80;;;18.80;90.80;;;;;;4986833;28;20062;-89
2022/06/18 03:47:14;;;;;;;1.50;0.65;;;18.90;91.00;;;;;;5009951;28;20057;-89
2022/06/18 03:49:40;;;;;;;1.95;0.65;;;18.80;90.80;;;;;;4997387;28;20033;-89
2022/06/18 03:52:11;;;;;;;1.15;0.60;;;18.90;90.80;;;;;;5012459;28;20038;-90
2022/06/18 03:54:40;;;;;;;2.22;0.73;;;18.90;90.70;;;;;;4996798;28;20030;-89
2022/06/18 03:57:06;;;;;;;1.75;0.70;;;18.80;90.70;;;;;;5013208;28;20036;-89
2022/06/18 03:59:32;;;;;;;2.63;0.77;;;18.90;90.70;;;;;;4992972;28;20038;-89
2022/06/18 04:01:57;;;;;;;1.42;0.70;;;18.90;90.70;;;;;;5012809;28;20544;-90
2022/06/18 04:04:34;;;;;;;1.70;0.63;;;19.00;90.60;;;;;;4992218;28;20038;-89
2022/06/18 04:07:03;;;;;;;1.20;0.55;;;19.00;90.60;;;;;;5010499;28;20065;-89
2022/06/18 04:09:30;;;;;;;2.92;0.70;;;19.00;90.50;;;;;;4995731;28;20126;-90
2022/06/18 04:12:07;;;;;;;2.83;0.60;;;19.10;90.40;;;;;;5011542;28;20038;-89
2022/06/18 04:14:35;;;;;;;1.63;0.93;;;19.00;90.50;;;;;;4990992;28;20042;-89
2022/06/18 04:17:04;;;;;;;2.05;0.85;;;19.10;90.40;;;;;;4996565;28;20147;-89
2022/06/18 04:19:32;;;;;;;2.65;0.70;;;19.20;90.40;;;;;;4990561;28;20520;-89
2022/06/18 04:21:58;;;;;;;1.10;0.60;;;19.20;90.60;;;;;;4991753;28;20113;-89
2022/06/18 04:24:26;;;;;;;1.92;0.70;;;19.20;90.60;;;;;;4993616;28;20631;-89
2022/06/18 04:27:00;;;;;;;1.25;0.68;;;19.30;90.40;;;;;;4993222;28;20051;-89
2022/06/18 04:29:29;;;;;;;1.05;0.55;;;19.30;90.30;;;;;;4989147;28;20022;-89
2022/06/18 04:32:02;;;;;;;1.77;0.80;;;19.40;90.10;;;;;;4987043;28;20033;-90
2022/06/18 04:34:30;;;;;;;1.30;0.80;;;19.50;90.10;;;;;;4991093;28;20049;-89
2022/06/18 04:36:56;;;;;;;1.10;0.55;;;19.50;89.70;;;;;;4991049;28;20429;-90
2022/06/18 04:39:24;;;;;;;1.67;0.68;;;19.60;89.10;;;;;;4993662;28;20029;-90
2022/06/18 04:41:56;;;;;;;1.88;0.60;;;19.50;88.70;;;;;;5010823;28;20482;-89
2022/06/18 04:44:27;;;;;;;1.25;0.65;;;19.60;89.50;;;;;;4995606;28;20026;-90
2022/06/18 04:46:57;;;;;;;1.23;0.57;;;19.70;90.00;;;;;;5006919;28;20486;-89
2022/06/18 04:49:26;;;;;;;1.67;0.60;;;19.70;90.30;;;;;;4987256;28;20029;-90
2022/06/18 04:51:54;;;;;;;1.98;0.80;;;19.80;90.30;;;;;;4993017;28;20034;-89
2022/06/18 04:54:20;;;;;;;1.42;0.60;;;19.80;90.60;;;;;;4990807;28;20026;-89
2022/06/18 04:56:46;;;;;;;2.20;0.75;;;19.80;90.50;;;;;;5006250;28;20088;-89
2022/06/18 04:59:17;;;;;;;1.55;0.73;;;19.80;90.40;;;;;;5006956;28;20070;-90
2022/06/18 05:01:46;;;;;;;2.67;1.00;;;19.90;90.30;;;;;;5010016;28;20037;-89
2022/06/18 05:04:11;;;;;;;5.43;0.90;;;20.00;90.20;;;;;;5009090;28;20033;-89
2022/06/18 05:06:40;;;;;;;1.38;0.57;;;20.10;90.40;;;;;;4991623;28;20030;-89
2022/06/18 05:09:14;;;;;;;1.27;0.50;;;20.00;90.20;;;;;;4988712;28;20034;-89
2022/06/18 05:11:42;;;;;;;2.88;0.80;;;20.10;89.90;;;;;;5006847;28;20667;-89
2022/06/18 05:14:23;;;;;;;1.95;0.90;;;20.10;89.50;;;;;;4992794;28;20061;-89
2022/06/18 05:16:57;;;;;;;3.22;0.85;;;20.20;89.00;;;;;;5006728;28;20329;-90
2022/06/18 05:19:30;;;;;;;1.50;0.65;;;20.20;88.70;;;;;;4988807;28;20404;-89
2022/06/18 05:21:59;;;;;;;2.28;1.00;;;20.30;89.20;;;;;;4993463;28;20040;-89
2022/06/18 05:24:36;;;;;;;1.50;0.77;;;20.20;89.90;;;;;;4989519;28;20061;-90
2022/06/18 05:27:06;;;;;;;2.00;0.90;;;20.30;89.50;;;;;;5010958;28;20494;-91
2022/06/18 05:29:50;;;;;;;2.47;0.80;;;20.30;90.00;;;;;;4992084;28;20029;-89
2022/06/18 05:32:27;;;;;;;1.98;1.02;;;20.30;90.00;;;;;;4991962;28;20036;-90
2022/06/18 05:34:52;;;;;;;1.73;0.63;;;20.40;90.20;;;;;;4995927;28;20025;-90
2022/06/18 05:37:25;;;;;;;2.35;0.80;;;20.40;90.10;;;;;;4993726;28;20762;-90
2022/06/18 05:39:58;;;;;;;1.58;0.80;;;20.50;90.10;;;;;;5012122;28;20025;-91
2022/06/18 05:42:39;;;;;;;2.78;0.90;;;20.60;89.80;;;;;;4991772;28;20030;-90
2022/06/18 05:45:12;;;;;;;1.80;0.80;;;20.60;88.30;;;;;;4990818;28;20407;-90
2022/06/18 05:47:39;;;;;;;1.85;0.85;;;20.60;87.50;;;;;;4986121;28;20116;-90
2022/06/18 05:50:26;;;;;;;2.03;0.70;;;20.80;87.50;;;;;;4989977;28;20065;-91
2022/06/18 05:53:05;;;;;;;1.65;0.93;;;20.90;86.00;;;;;;4991369;28;20034;-91
2022/06/18 05:56:04;;;;;;;1.50;0.80;;;21.00;84.80;;;;;;4992575;28;20037;-91
2022/06/18 05:58:51;;;;;;;2.00;0.80;;;21.00;84.10;;;;;;4999987;28;20038;-91
2022/06/18 06:01:20;;;;;;;0.98;0.50;;;20.90;85.00;;;;;;4987194;28;20044;-90
2022/06/18 06:06:34;;;;;;;5.25;0.80;;;21.00;84.20;;;;;;5010686;28;20042;-91
2022/06/18 06:09:07;;;;;;;2.20;0.90;;;21.20;84.20;;;;;;4991188;28;20037;-90
2022/06/18 06:11:58;;;;;;;1.13;0.70;;;21.20;84.50;;;;;;4989628;28;20394;-91
2022/06/18 06:15:17;;;;;;;1.10;0.57;;;21.40;84.00;;;;;;4960791;28;20030;-91
2022/06/18 06:21:41;;;;;;;;;;;;;;;;;;;;;
2022/06/18 06:24:41;;;;;;;1.98;0.50;;;21.80;86.10;;;;;;5011115;28;19931;-90
2022/06/18 06:27:14;;;;;;;2.40;0.85;;;21.90;86.80;;;;;;4989192;28;20561;-92
2022/06/18 06:29:52;;;;;;;2.70;1.08;;;21.90;87.70;;;;;;4992902;28;20030;-90
2022/06/18 06:32:36;;;;;;;1.65;0.80;;;22.00;87.70;;;;;;4989126;28;20442;-90
2022/06/18 06:35:12;;;;;;;1.70;0.80;;;22.00;87.90;;;;;;4988683;28;20029;-90
2022/06/18 06:37:41;;;;;;;2.22;0.80;;;22.20;88.60;;;;;;4990308;28;20496;-90
2022/06/18 06:40:18;;;;;;;2.55;0.75;;;22.30;89.00;;;;;;4995181;28;20021;-90
2022/06/18 06:42:58;;;;;;;3.45;0.90;;;22.50;89.20;;;;;;5009724;28;20037;-90
2022/06/18 06:46:23;;;;;;;;;;;;;;;;;;;;;
2022/06/18 06:52:16;;;;;;;2.25;0.98;;;22.80;89.90;;;;;;4882141;29;20124;-89
2022/06/18 08:22:55;;;;;;;;;;;;;;;;;;;;;
2022/06/18 09:09:45;;;;;;;;;;;;;;;;;;;;;
2022/06/18 09:13:06;;;;;;;2.13;0.52;;;30.00;67.70;;;;;;5036225;28;20112;-91
2022/06/18 09:19:18;;;;;;;1.25;0.52;;;30.70;67.40;;;;;;4972079;28;20029;-91
2022/06/18 09:22:18;;;;;;;1.17;0.60;;;30.80;66.80;;;;;;5013695;28;20041;-92
2022/06/18 10:30:58;;;;;;;1.00;0.43;;;34.70;55.40;;;;;;5027579;23;20045;-91
2022/06/18 10:33:38;;;;;;;1.10;0.60;;;34.20;53.70;;;;;;5023607;28;20032;-89
2022/06/18 10:36:25;;;;;;;1.25;0.55;;;34.10;55.10;;;;;;5024029;28;20089;-89
2022/06/18 10:39:16;;;;;;;1.08;0.47;;;34.30;56.90;;;;;;5017569;28;20092;-90
2022/06/18 10:41:49;;;;;;;0.98;0.40;;;34.30;54.60;;;;;;5014845;28;20030;-91
2022/06/18 10:44:33;;;;;;;2.33;0.45;;;34.40;55.10;;;;;;5016147;28;20100;-92
2022/06/18 10:47:05;;;;;;;1.13;0.40;;;34.70;54.20;;;;;;5007321;28;20018;-92
2022/06/18 10:49:31;;;;;;;1.02;0.40;;;34.50;53.60;;;;;;5006577;28;20167;-90
2022/06/18 10:51:58;;;;;;;0.60;0.30;;;34.30;53.90;;;;;;5020690;28;20096;-91
2022/06/18 10:54:34;;;;;;;1.58;0.47;;;34.40;54.50;;;;;;5019528;28;20037;-91
2022/06/18 10:57:01;;;;;;;1.00;0.47;;;34.80;55.40;;;;;;5000842;28;20085;-91
2022/06/18 10:59:36;;;;;;;0.93;0.40;;;35.10;55.10;;;;;;5020551;28;20026;-90
2022/06/18 12:51:10;;;;;;;2.92;1.00;;;38.70;49.10;;;;;;4785547;22;20507;-90
2022/06/18 12:54:09;;;;;;;;;;;;;;;;;;;;;
2022/06/18 12:57:08;;;;;;;3.45;0.93;;;38.80;49.00;;;;;;5013501;28;20094;-90
2022/06/18 13:00:11;;;;;;;1.98;0.80;;;38.50;49.20;;;;;;4999047;28;20764;-88
2022/06/18 13:03:08;;;;;;;2.38;0.70;;;38.10;50.00;;;;;;4991963;28;20030;-90
2022/06/18 13:05:46;;;;;;;4.13;0.70;;;38.50;49.30;;;;;;5001548;28;20178;-90
2022/06/18 13:08:47;;;;;;;1.15;0.50;;;38.30;50.50;;;;;;5000472;28;20056;-89
2022/06/18 13:11:41;;;;;;;4.38;0.82;;;38.40;50.20;;;;;;5006787;28;20016;-90
2022/06/18 13:14:45;;;;;;;3.60;0.65;;;38.80;49.50;;;;;;5000503;28;20032;-89
2022/06/18 13:17:40;;;;;;;1.23;0.60;;;39.00;49.50;;;;;;4945509;28;20034;-89
2022/06/18 13:20:25;;;;;;;1.55;0.50;;;38.90;50.60;;;;;;4998072;28;20034;-89
2022/06/18 13:22:53;;;;;;;3.35;0.93;;;38.60;49.50;;;;;;5022403;28;20049;-88
2022/06/18 13:28:56;;;;;;;1.95;0.70;;;38.50;51.20;;;;;;5021317;28;20652;-89
2022/06/18 13:31:38;;;;;;;3.25;1.08;;;38.50;50.60;;;;;;4938520;28;20124;-90
2022/06/18 13:34:26;;;;;;;2.08;0.60;;;38.50;49.90;;;;;;4996012;28;20041;-90
2022/06/18 13:37:02;;;;;;;3.63;0.63;;;38.50;50.00;;;;;;4994560;28;20022;-90
2022/06/18 13:40:36;;;;;;;3.72;1.05;;;38.20;50.90;;;;;;4996462;28;20052;-90
2022/06/18 13:43:32;;;;;;;3.30;0.77;;;38.30;51.50;;;;;;4918110;29;20499;-90
2022/06/18 13:46:44;;;;;;;1.25;0.52;;;38.70;50.70;;;;;;4913967;29;20630;-90
2022/06/18 13:49:36;;;;;;;4.60;0.73;;;38.90;50.20;;;;;;4913890;29;20043;-90
2022/06/18 13:52:25;;;;;;;1.83;0.95;;;39.20;50.10;;;;;;4916064;29;20086;-90
2022/06/18 13:54:59;;;;;;;1.30;0.50;;;39.30;50.00;;;;;;4934951;29;20046;-91
2022/06/18 13:57:39;;;;;;;3.33;0.95;;;38.90;49.50;;;;;;4914440;29;20039;-91
2022/06/18 14:00:20;;;;;;;3.70;0.70;;;39.00;49.80;;;;;;4932921;29;20710;-91
2022/06/18 14:02:55;;;;;;;2.22;1.02;;;38.70;49.90;;;;;;4950798;28;20038;-90
2022/06/18 14:05:34;;;;;;;1.45;0.90;;;38.70;49.90;;;;;;4990649;28;20112;-91
2022/06/18 14:08:10;;;;;;;3.05;0.70;;;38.10;50.20;;;;;;5012412;28;20105;-90
2022/06/18 14:10:46;;;;;;;1.90;0.75;;;38.10;50.60;;;;;;4995999;28;20030;-91
2022/06/18 14:13:25;;;;;;;2.25;0.90;;;38.40;50.40;;;;;;4996061;28;20076;-91
2022/06/18 14:16:28;;;;;;;3.67;0.70;;;38.70;50.70;;;;;;5005943;28;20046;-91
2022/06/18 14:19:19;;;;;;;1.52;0.50;;;38.80;51.80;;;;;;5016090;28;20081;-91
2022/06/18 14:21:59;;;;;;;3.25;0.77;;;38.90;49.80;;;;;;5013315;28;20598;-89
2022/06/18 14:24:36;;;;;;;;;;;39.10;50.20;;;;;;5006600;28;20018;-92
2022/06/18 14:27:06;;;;;;;4.18;0.70;;;39.10;51.20;;;;;;5021847;28;19905;-92
2022/06/18 14:30:08;;;;;;;2.40;0.70;;;39.10;51.50;;;;;;5007232;28;20041;-92
2022/06/18 14:32:55;;;;;;;2.53;0.82;;;39.10;51.30;;;;;;5005568;28;20264;-91
2022/06/18 14:39:29;;;;;;;;;;;38.70;51.20;;;;;;4964962;28;20146;-92
2022/06/18 14:42:44;;;;;;;2.28;0.90;;;38.50;50.70;;;;;;4951479;28;20127;-91
2022/06/18 14:45:55;;;;;;;3.10;0.80;;;38.10;49.20;;;;;;5009250;28;20033;-91
2022/06/18 14:52:04;;;;;;;3.90;1.17;;;38.70;50.80;;;;;;5023124;28;20049;-90
2022/06/18 14:58:36;;;;;;;2.70;0.77;;;38.70;49.30;;;;;;5029807;28;20285;-90
2022/06/18 15:01:22;;;;;;;1.70;0.55;;;38.50;49.40;;;;;;5001506;28;20021;-91
2022/06/18 15:04:28;;;;;;;4.70;1.17;;;38.50;49.00;;;;;;5007848;28;20045;-89
2022/06/18 15:07:20;;;;;;;5.22;1.40;;;38.30;48.70;;;;;;5006010;28;20065;-91
2022/06/18 15:10:14;;;;;;;3.40;0.80;;;38.50;49.30;;;;;;5000415;28;20046;-92
2022/06/18 15:13:03;;;;;;;7.07;1.30;;;38.50;48.40;;;;;;5003173;28;20048;-92
2022/06/18 15:21:58;;;;;;;11.63;1.00;;;38.70;48.00;;;;;;5026480;28;20045;-92
2022/06/18 15:28:14;;;;;;;4.72;1.10;;;38.50;47.20;;;;;;5028357;28;20025;-91
2022/06/18 15:37:38;;;;;;;5.97;0.93;;;38.10;45.80;;;;;;4977921;28;20073;-89
2022/06/18 15:40:37;;;;;;;;;;;;;;;;;;;;;
2022/06/18 15:47:28;;;;;;;;;;;;;;;;;;;;;
2022/06/18 19:09:55;;;;;;;6.63;1.08;;;29.60;61.50;;;;;;5004048;28;20033;-88
2022/06/18 19:15:19;;;;;;;4.53;1.02;;;29.40;61.70;;;;;;5035365;28;20043;-90
2022/06/18 19:17:58;;;;;;;4.15;1.00;;;29.30;61.80;;;;;;5029973;28;20165;-90
2022/06/18 19:20:48;;;;;;;4.15;1.40;;;29.20;62.30;;;;;;5019155;28;20121;-89
2022/06/18 19:23:47;;;;;;;3.70;1.30;;;29.20;62.70;;;;;;5019018;28;20053;-89
2022/06/18 19:30:36;;;;;;;5.75;1.25;;;28.90;62.70;;;;;;5035426;28;20156;-91
2022/06/18 20:49:14;;;;;;;3.60;1.17;;;27.00;71.90;;;;;;3588020;22;20328;-85
2022/06/18 20:51:44;;;;;;;5.15;1.65;;;26.90;72.40;;;;;;5015430;28;20045;-86
2022/06/18 20:59:36;;;;;;;2.40;1.00;;;26.60;73.40;;;;;;5015299;28;20088;-86
2022/06/18 21:02:02;;;;;;;3.40;1.40;;;26.60;74.20;;;;;;4999840;28;20018;-87
2022/06/18 21:04:28;;;;;;;3.20;1.08;;;26.60;73.60;;;;;;5018546;28;20095;-87
2022/06/18 21:06:53;;;;;;;4.50;1.48;;;26.60;73.50;;;;;;4999964;28;20030;-86
2022/06/18 21:09:19;;;;;;;2.97;1.17;;;26.50;73.60;;;;;;4999617;28;20537;-88
2022/06/18 21:11:45;;;;;;;8.68;1.48;;;26.50;73.80;;;;;;4995825;28;20042;-86
2022/06/18 21:14:11;;;;;;;5.07;1.45;;;26.50;73.70;;;;;;4994296;28;20033;-88
2022/06/18 21:16:36;;;;;;;7.60;1.80;;;26.40;73.70;;;;;;5016120;28;20029;-87
2022/06/18 21:19:03;;;;;;;4.55;1.35;;;26.40;73.90;;;;;;5015612;28;20026;-88
2022/06/18 21:21:30;;;;;;;3.22;0.90;;;26.30;74.00;;;;;;5017441;28;20022;-88
2022/06/18 21:23:55;;;;;;;4.05;1.40;;;26.30;74.10;;;;;;4998734;28;20049;-88
2022/06/18 21:26:22;;;;;;;6.65;1.67;;;26.30;74.20;;;;;;5011799;28;20034;-87
2022/06/18 21:28:48;;;;;;;3.42;1.38;;;26.30;74.30;;;;;;5018528;28;20069;-88
2022/06/18 21:37:01;;;;;;;4.60;1.52;;;26.20;73.40;;;;;;5018991;28;20092;-88
2022/06/18 21:39:34;;;;;;;4.93;1.17;;;26.10;73.30;;;;;;5000263;28;20049;-87
2022/06/18 21:42:03;;;;;;;4.10;1.70;;;26.00;73.60;;;;;;4993107;28;20026;-88
2022/06/18 21:44:29;;;;;;;2.63;1.35;;;26.00;73.10;;;;;;4999263;28;20093;-88
2022/06/18 21:46:57;;;;;;;8.00;1.10;;;26.00;73.00;;;;;;4999501;28;20056;-88
2022/06/18 21:49:27;;;;;;;7.28;2.03;;;26.00;73.20;;;;;;5018732;28;20025;-88
2022/06/18 21:51:57;;;;;;;6.03;2.30;;;25.90;73.10;;;;;;4996932;28;20113;-88
2022/06/18 21:54:24;;;;;;;9.63;2.97;;;25.90;72.70;;;;;;5007996;28;20030;-88
2022/06/18 21:56:55;;;;;;;5.50;2.38;;;25.80;73.10;;;;;;4999556;28;20025;-88
2022/06/18 21:59:24;;;;;;;6.53;2.90;;;25.80;73.40;;;;;;5011249;28;20073;-87
2022/06/18 22:01:50;;;;;;;7.75;2.38;;;25.70;73.80;;;;;;5000095;28;20168;-87
2022/06/18 22:04:20;;;;;;;6.22;1.50;;;25.70;73.10;;;;;;5014798;28;20026;-88
2022/06/18 22:06:48;;;;;;;4.43;1.20;;;25.60;72.60;;;;;;5015565;28;20030;-87
2022/06/18 22:09:17;;;;;;;6.07;1.02;;;25.60;73.10;;;;;;5016616;28;20037;-88
2022/06/18 22:17:14;;;;;;;3.83;1.20;;;25.40;73.90;;;;;;5017751;28;20635;-88
2022/06/18 22:19:39;;;;;;;3.97;1.15;;;25.30;74.20;;;;;;5015381;28;20038;-88
2022/06/18 22:22:08;;;;;;;2.80;0.98;;;25.30;74.50;;;;;;5012764;28;20081;-88
2022/06/18 22:24:42;;;;;;;4.95;1.10;;;25.20;75.20;;;;;;5019013;28;20048;-88
2022/06/18 22:27:08;;;;;;;3.83;1.13;;;25.20;76.20;;;;;;4999217;28;20042;-88
2022/06/18 22:29:36;;;;;;;3.45;1.10;;;25.10;75.50;;;;;;5017724;28;20037;-87
2022/06/18 22:32:02;;;;;;;4.50;0.82;;;25.10;75.70;;;;;;4997871;28;20018;-88
2022/06/18 22:34:28;;;;;;;4.15;1.35;;;25.00;75.00;;;;;;5001241;28;20040;-88
2022/06/18 22:36:54;;;;;;;4.75;1.30;;;25.00;74.60;;;;;;5017706;28;20042;-88
2022/06/18 22:39:20;;;;;;;5.45;1.48;;;25.00;75.50;;;;;;4993475;28;20034;-88
2022/06/18 22:41:47;;;;;;;4.80;1.15;;;24.90;76.20;;;;;;4997640;28;20022;-87
2022/06/18 22:44:18;;;;;;;3.03;1.10;;;24.80;76.80;;;;;;4997243;28;20017;-87
2022/06/18 22:46:47;;;;;;;4.22;0.93;;;24.80;76.30;;;;;;5002935;28;20050;-86
2022/06/18 22:49:27;;;;;;;3.65;0.95;;;24.80;75.80;;;;;;4992452;28;20037;-89
2022/06/18 22:51:54;;;;;;;3.65;1.15;;;24.70;76.90;;;;;;4997479;28;20038;-88
2022/06/18 22:54:27;;;;;;;5.75;1.23;;;24.60;78.50;;;;;;5008169;28;20490;-88
2022/06/18 22:56:53;;;;;;;10.70;1.30;;;24.50;78.70;;;;;;5017461;28;20018;-89
2022/06/18 22:59:20;;;;;;;4.82;1.48;;;24.30;79.10;;;;;;4997972;28;20497;-88
2022/06/18 23:01:47;;;;;;;7.03;1.58;;;24.10;80.10;;;;;;4998075;28;20029;-88
2022/06/18 23:04:13;;;;;;;4.70;1.40;;;24.10;80.20;;;;;;5013557;28;20022;-89
2022/06/18 23:06:40;;;;;;;6.50;1.40;;;24.10;80.40;;;;;;4996628;28;20520;-89
2022/06/18 23:09:13;;;;;;;6.97;1.60;;;24.10;80.40;;;;;;4993683;28;20482;-88
2022/06/18 23:11:54;;;;;;;4.00;1.40;;;24.00;80.40;;;;;;5012036;28;20062;-89
2022/06/18 23:14:29;;;;;;;7.13;1.17;;;24.10;80.70;;;;;;4993295;28;20014;-89
2022/06/18 23:16:58;;;;;;;3.35;1.20;;;24.10;80.20;;;;;;4997359;28;20088;-89
2022/06/18 23:19:25;;;;;;;4.55;0.93;;;24.10;79.70;;;;;;4991709;28;20513;-89
2022/06/18 23:21:56;;;;;;;2.80;1.00;;;24.00;79.60;;;;;;4995332;28;20022;-89
2022/06/18 23:24:22;;;;;;;3.73;1.27;;;24.00;79.40;;;;;;5013574;28;20022;-89
2022/06/18 23:26:50;;;;;;;6.15;1.63;;;24.00;79.60;;;;;;4995674;28;20021;-88
2022/06/18 23:29:16;;;;;;;3.95;1.25;;;24.00;79.40;;;;;;5011930;28;20022;-89
2022/06/18 23:31:42;;;;;;;6.88;1.52;;;24.00;79.60;;;;;;4995722;28;20026;-88
2022/06/18 23:34:15;;;;;;;4.82;1.23;;;24.00;79.70;;;;;;5013036;28;20441;-88
2022/06/18 23:36:43;;;;;;;6.28;1.48;;;24.00;80.10;;;;;;5012506;28;20034;-89
2022/06/18 23:39:09;;;;;;;5.85;1.58;;;24.00;80.60;;;;;;4994054;28;20049;-88
2022/06/18 23:41:36;;;;;;;5.90;1.50;;;24.00;80.60;;;;;;5012385;28;20026;-88
2022/06/18 23:44:09;;;;;;;5.18;2.67;;;24.00;80.40;;;;;;4975212;28;20029;-89
2022/06/18 23:46:38;;;;;;;3.38;1.35;;;23.90;79.60;;;;;;5012861;28;20034;-89
2022/06/18 23:49:07;;;;;;;4.28;1.45;;;23.80;77.30;;;;;;5011196;28;20084;-89
2022/06/18 23:51:33;;;;;;;4.00;0.82;;;23.90;78.10;;;;;;4995758;28;20037;-88
2022/06/18 23:53:58;;;;;;;3.15;1.02;;;23.80;77.10;;;;;;5005618;28;20521;-89
2022/06/18 23:56:24;;;;;;;3.35;0.60;;;23.80;76.60;;;;;;5011838;28;20026;-89
2022/06/18 23:58:51;;;;;;;3.47;0.77;;;23.90;76.90;;;;;;4991323;28;20049;-89
